Terminal Aerodrome Forecast
Issued by NWS Mt. Holly, NJ

Home | Current Version | Previous Version | Text Only | Print | Product List | Glossary On
Versions: 1 2 3 4 5 6 7 8 9 10 11 12 13 14 15 16 17 18 19 20 21 22 23 24 25 26
000
FTUS41 KPHI 251652 AAB
TAFILG
TAF AMD
KILG 251652Z 2517/2612 06010KT P6SM OVC005
     FM251800 09008KT P6SM BKN015
      TEMPO 2522/2602 TSRA OVC015CB
     FM260400 VRB06KT P6SM BKN060
     FM260600 27008KT P6SM BKN050=

USA.gov is the U.S. government's official web portal to all federal, state and local government web resources and services.